createdAt,value
2017-09-29T00:00:52.352Z,17.43
2017-09-29T00:01:54.185Z,17.38
2017-09-29T00:02:56.070Z,17.38
2017-09-29T00:03:57.965Z,17.40
2017-09-29T00:04:59.849Z,17.31
2017-09-29T00:06:14.056Z,17.43
2017-09-29T00:07:15.933Z,17.33
2017-09-29T00:08:17.821Z,17.36
2017-09-29T00:09:19.701Z,17.28
2017-09-29T00:10:21.519Z,17.23
2017-09-29T00:11:23.338Z,17.18
2017-09-29T00:12:25.222Z,17.11
2017-09-29T00:13:27.102Z,16.98
2017-09-29T00:14:28.997Z,17.11
2017-09-29T00:15:43.153Z,17.12
2017-09-29T00:16:45.034Z,17.07
2017-09-29T00:17:46.928Z,17.14
2017-09-29T00:18:48.810Z,17.06
2017-09-29T00:19:50.629Z,17.07
2017-09-29T00:20:52.447Z,17.04
2017-09-29T00:21:54.331Z,17.00
2017-09-29T00:22:56.223Z,17.04
2017-09-29T00:23:58.108Z,16.94
2017-09-29T00:25:12.261Z,16.97
2017-09-29T00:26:14.153Z,16.91
2017-09-29T00:27:16.038Z,16.85
2017-09-29T00:28:17.918Z,16.85
2017-09-29T00:29:19.737Z,16.78
2017-09-29T00:30:21.557Z,16.66
2017-09-29T00:31:23.442Z,16.67
2017-09-29T00:32:25.321Z,16.67
2017-09-29T00:33:27.208Z,16.63
2017-09-29T00:34:41.362Z,16.63
2017-09-29T00:35:43.242Z,16.53
2017-09-29T00:36:45.130Z,16.58
2017-09-29T00:37:47.011Z,16.53
2017-09-29T00:38:48.827Z,16.46
2017-09-29T00:39:50.649Z,16.46
2017-09-29T00:40:52.530Z,16.43
2017-09-29T00:41:54.413Z,16.38
2017-09-29T00:42:56.294Z,16.30
2017-09-29T00:44:10.452Z,16.39
2017-09-29T00:45:12.330Z,16.43
2017-09-29T00:46:14.212Z,16.43
2017-09-29T00:47:16.091Z,16.41
2017-09-29T00:48:17.907Z,16.45
2017-09-29T00:49:19.725Z,16.41
2017-09-29T00:50:21.609Z,16.39
2017-09-29T00:51:23.492Z,16.45
2017-09-29T00:52:25.373Z,16.42
2017-09-29T00:53:39.529Z,16.45
2017-09-29T00:54:41.413Z,16.34
2017-09-29T00:55:43.296Z,16.31
2017-09-29T00:56:45.177Z,16.45
2017-09-29T00:57:46.994Z,16.28
2017-09-29T00:58:48.812Z,16.33
2017-09-29T00:59:50.695Z,16.21
2017-09-29T01:00:52.576Z,16.21
2017-09-29T01:01:54.460Z,16.25
2017-09-29T01:03:08.615Z,16.33
2017-09-29T01:04:10.498Z,16.27
2017-09-29T01:05:12.382Z,16.27
2017-09-29T01:06:14.277Z,16.35
2017-09-29T01:07:16.091Z,16.28
2017-09-29T01:08:17.908Z,16.34
2017-09-29T01:09:19.795Z,16.30
2017-09-29T01:10:21.677Z,16.31
2017-09-29T01:11:23.561Z,16.31
2017-09-29T01:12:37.717Z,16.38
2017-09-29T01:13:39.601Z,16.30
2017-09-29T01:14:41.486Z,16.33
2017-09-29T01:15:43.369Z,16.34
2017-09-29T01:16:45.183Z,16.30
2017-09-29T01:17:47.000Z,16.30
2017-09-29T01:18:48.885Z,16.23
2017-09-29T01:19:50.765Z,16.31
2017-09-29T01:20:52.611Z,16.33
2017-09-29T01:22:06.814Z,16.35
2017-09-29T01:23:08.694Z,16.27
2017-09-29T01:24:10.585Z,16.39
2017-09-29T01:25:12.465Z,16.30
2017-09-29T01:26:14.294Z,16.35
2017-09-29T01:27:16.111Z,16.24
2017-09-29T01:28:17.994Z,16.21
2017-09-29T01:29:19.875Z,16.21
2017-09-29T01:30:21.770Z,16.30
2017-09-29T01:31:35.971Z,16.23
2017-09-29T01:32:37.851Z,16.25
2017-09-29T01:33:39.736Z,16.21
2017-09-29T01:34:41.615Z,16.30
2017-09-29T01:35:43.442Z,16.27
2017-09-29T01:36:45.262Z,16.25
2017-09-29T01:37:47.148Z,16.23
2017-09-29T01:38:49.029Z,16.21
2017-09-29T01:39:50.914Z,16.15
2017-09-29T01:41:05.067Z,16.24
2017-09-29T01:42:06.947Z,16.15
2017-09-29T01:43:08.834Z,16.11
2017-09-29T01:44:10.715Z,16.12
2017-09-29T01:45:12.532Z,16.17
2017-09-29T01:46:14.347Z,16.17
2017-09-29T01:47:16.229Z,16.08
2017-09-29T01:48:18.121Z,16.09
2017-09-29T01:49:20.002Z,16.02
2017-09-29T01:50:34.161Z,16.08
2017-09-29T01:51:36.045Z,16.05
2017-09-29T01:52:37.935Z,16.08
2017-09-29T01:53:39.820Z,16.02
2017-09-29T01:54:41.679Z,16.00
2017-09-29T01:55:43.478Z,15.97
2017-09-29T01:56:45.360Z,15.92
2017-09-29T01:57:47.253Z,15.94
2017-09-29T01:58:49.135Z,15.96
2017-09-29T02:00:03.293Z,16.00
2017-09-29T02:01:05.176Z,15.96
2017-09-29T02:02:07.063Z,15.96
2017-09-29T02:03:08.960Z,15.94
2017-09-29T02:04:10.783Z,15.94
2017-09-29T02:05:12.604Z,15.97
2017-09-29T02:06:14.487Z,15.90
2017-09-29T02:07:16.372Z,16.00
2017-09-29T02:08:18.271Z,16.02
2017-09-29T02:09:32.428Z,16.01
2017-09-29T02:10:34.311Z,15.96
2017-09-29T02:11:36.197Z,15.96
2017-09-29T02:12:38.082Z,15.97
2017-09-29T02:13:39.905Z,15.97
2017-09-29T02:14:41.724Z,15.93
2017-09-29T02:15:43.610Z,15.93
2017-09-29T02:16:45.494Z,15.94
2017-09-29T02:17:47.380Z,15.90
2017-09-29T02:19:01.537Z,15.90
2017-09-29T02:20:03.422Z,15.84
2017-09-29T02:21:05.312Z,15.83
2017-09-29T02:22:07.196Z,15.89
2017-09-29T02:23:09.019Z,15.86
2017-09-29T02:24:10.838Z,15.82
2017-09-29T02:25:12.729Z,15.82
2017-09-29T02:26:14.625Z,15.86
2017-09-29T02:27:16.511Z,15.84
2017-09-29T02:28:30.681Z,15.82
2017-09-29T02:29:32.564Z,15.75
2017-09-29T02:30:34.452Z,15.75
2017-09-29T02:31:36.336Z,15.74
2017-09-29T02:32:38.171Z,15.72
2017-09-29T02:33:40.000Z,15.72
2017-09-29T02:34:42.246Z,15.71
2017-09-29T02:35:44.161Z,15.62
2017-09-29T02:36:46.051Z,15.76
2017-09-29T02:38:00.214Z,15.74
2017-09-29T02:39:02.096Z,15.78
2017-09-29T02:40:03.987Z,15.71
2017-09-29T02:41:05.871Z,15.75
2017-09-29T02:42:07.706Z,15.71
2017-09-29T02:43:09.565Z,15.76
2017-09-29T02:44:11.410Z,15.76
2017-09-29T02:45:13.299Z,15.76
2017-09-29T02:46:15.201Z,15.72
2017-09-29T02:47:29.358Z,15.72
2017-09-29T02:48:31.242Z,15.67
2017-09-29T02:49:33.130Z,15.75
2017-09-29T02:50:35.017Z,15.57
2017-09-29T02:51:36.838Z,15.74
2017-09-29T02:52:38.658Z,15.65
2017-09-29T02:53:40.545Z,15.64
2017-09-29T02:54:42.430Z,15.57
2017-09-29T02:55:44.314Z,15.65
2017-09-29T02:56:58.570Z,15.62
2017-09-29T02:58:00.452Z,15.53
2017-09-29T02:59:02.340Z,15.57
2017-09-29T03:00:04.226Z,15.57
2017-09-29T03:01:06.058Z,15.56
2017-09-29T03:02:07.890Z,15.60
2017-09-29T03:03:09.774Z,15.60
2017-09-29T03:04:11.660Z,15.60
2017-09-29T03:05:13.549Z,15.60
2017-09-29T03:06:27.757Z,15.67
2017-09-29T03:07:29.641Z,15.53
2017-09-29T03:08:31.537Z,15.60
2017-09-29T03:09:33.424Z,15.62
2017-09-29T03:10:35.245Z,15.62
2017-09-29T03:11:37.077Z,15.64
2017-09-29T03:12:38.964Z,15.57
2017-09-29T03:13:40.849Z,15.54
2017-09-29T03:14:42.735Z,15.53
2017-09-29T03:15:56.941Z,15.59
2017-09-29T03:16:58.826Z,15.54
2017-09-29T03:18:00.713Z,15.51
2017-09-29T03:19:02.598Z,15.57
2017-09-29T03:20:04.417Z,15.49
2017-09-29T03:21:06.237Z,15.47
2017-09-29T03:22:08.122Z,15.54
2017-09-29T03:23:10.007Z,15.51
2017-09-29T03:24:11.891Z,15.59
2017-09-29T03:25:26.046Z,15.46
2017-09-29T03:26:27.930Z,15.44
2017-09-29T03:27:29.815Z,15.56
2017-09-29T03:28:31.698Z,15.41
2017-09-29T03:29:33.523Z,15.44
2017-09-29T03:30:35.350Z,15.47
2017-09-29T03:31:37.230Z,15.38
2017-09-29T03:32:39.114Z,15.51
2017-09-29T03:33:41.000Z,15.54
2017-09-29T03:34:55.156Z,15.54
2017-09-29T03:35:57.053Z,15.54
2017-09-29T03:36:58.938Z,15.53
2017-09-29T03:38:00.824Z,15.44
2017-09-29T03:39:02.686Z,15.53
2017-09-29T03:40:04.473Z,15.46
2017-09-29T03:41:06.359Z,15.51
2017-09-29T03:42:08.204Z,15.49
2017-09-29T03:43:10.025Z,15.51
2017-09-29T03:44:24.182Z,15.56
2017-09-29T03:45:26.066Z,15.43
2017-09-29T03:46:27.953Z,15.51
2017-09-29T03:47:29.836Z,15.44
2017-09-29T03:48:31.667Z,15.43
2017-09-29T03:49:33.478Z,15.51
2017-09-29T03:50:35.365Z,15.47
2017-09-29T03:51:37.251Z,15.38
2017-09-29T03:52:39.135Z,15.46
2017-09-29T03:53:53.290Z,15.38
2017-09-29T03:54:55.188Z,15.34
2017-09-29T03:55:57.077Z,15.35
2017-09-29T03:56:58.959Z,15.44
2017-09-29T03:58:00.780Z,15.36
2017-09-29T03:59:02.602Z,15.39
2017-09-29T04:00:04.486Z,15.35
2017-09-29T04:01:06.373Z,15.39
2017-09-29T04:02:08.260Z,15.35
2017-09-29T04:03:22.417Z,15.32
2017-09-29T04:04:24.308Z,15.35
2017-09-29T04:05:26.189Z,15.21
2017-09-29T04:06:28.072Z,15.39
2017-09-29T04:07:29.894Z,15.43
2017-09-29T04:08:31.719Z,15.47
2017-09-29T04:09:33.601Z,15.46
2017-09-29T04:10:35.486Z,15.54
2017-09-29T04:11:37.371Z,15.54
2017-09-29T04:12:51.528Z,15.56
2017-09-29T04:13:53.412Z,15.60
2017-09-29T04:14:55.299Z,15.60
2017-09-29T04:15:57.182Z,15.62
2017-09-29T04:16:59.008Z,15.53
2017-09-29T04:18:00.828Z,15.47
2017-09-29T04:19:02.711Z,15.51
2017-09-29T04:20:04.598Z,15.53
2017-09-29T04:21:06.485Z,15.51
2017-09-29T04:22:20.644Z,15.64
2017-09-29T04:23:22.529Z,15.62
2017-09-29T04:24:24.417Z,15.75
2017-09-29T04:25:26.303Z,16.00
2017-09-29T04:26:28.124Z,16.01
2017-09-29T04:27:29.943Z,16.05
2017-09-29T04:28:31.856Z,16.07
2017-09-29T04:29:33.712Z,16.04
2017-09-29T04:30:35.598Z,16.01
2017-09-29T04:31:49.760Z,15.92
2017-09-29T04:32:51.645Z,15.86
2017-09-29T04:33:53.533Z,15.80
2017-09-29T04:34:55.417Z,15.75
2017-09-29T04:35:57.250Z,15.75
2017-09-29T04:36:59.081Z,15.71
2017-09-29T04:38:00.969Z,15.68
2017-09-29T04:39:02.855Z,15.68
2017-09-29T04:40:04.742Z,15.56
2017-09-29T04:41:18.901Z,15.54
2017-09-29T04:42:20.789Z,15.56
2017-09-29T04:43:22.678Z,15.53
2017-09-29T04:44:24.565Z,15.57
2017-09-29T04:45:26.386Z,15.50
2017-09-29T04:46:28.208Z,15.38
2017-09-29T04:47:30.095Z,15.35
2017-09-29T04:48:31.991Z,15.38
2017-09-29T04:49:33.878Z,15.41
2017-09-29T04:50:48.086Z,15.25
2017-09-29T04:51:49.973Z,15.34
2017-09-29T04:52:51.861Z,15.35
2017-09-29T04:53:53.749Z,15.32
2017-09-29T04:54:55.574Z,15.36
2017-09-29T04:55:57.395Z,15.21
2017-09-29T04:56:59.280Z,15.21
2017-09-29T04:58:01.170Z,15.32
2017-09-29T04:59:03.060Z,15.25
2017-09-29T05:00:17.220Z,15.34
2017-09-29T05:01:19.105Z,15.25
2017-09-29T05:02:20.992Z,15.27
2017-09-29T05:03:22.884Z,15.27
2017-09-29T05:04:24.701Z,15.19
2017-09-29T05:05:26.523Z,15.29
2017-09-29T05:06:28.410Z,15.28
2017-09-29T05:07:30.296Z,15.23
2017-09-29T05:08:32.196Z,15.35
2017-09-29T05:09:46.357Z,15.32
2017-09-29T05:10:48.242Z,15.29
2017-09-29T05:11:50.130Z,15.32
2017-09-29T05:12:52.019Z,15.35
2017-09-29T05:13:53.850Z,15.38
2017-09-29T05:14:55.671Z,15.34
2017-09-29T05:15:57.558Z,15.43
2017-09-29T05:16:59.446Z,15.53
2017-09-29T05:18:01.335Z,15.50
2017-09-29T05:19:15.496Z,15.57
2017-09-29T05:20:17.386Z,15.51
2017-09-29T05:21:19.272Z,15.62
2017-09-29T05:22:21.162Z,15.53
2017-09-29T05:23:22.989Z,15.65
2017-09-29T05:24:24.814Z,15.64
2017-09-29T05:25:26.703Z,15.71
2017-09-29T05:26:28.590Z,15.67
2017-09-29T05:27:30.481Z,15.72
2017-09-29T05:28:44.651Z,15.74
2017-09-29T05:29:46.534Z,15.78
2017-09-29T05:30:48.421Z,15.82
2017-09-29T05:31:50.310Z,15.83
2017-09-29T05:32:52.140Z,15.97
2017-09-29T05:33:53.969Z,15.96
2017-09-29T05:34:55.874Z,16.00
2017-09-29T05:35:57.769Z,16.07
2017-09-29T05:36:59.655Z,16.05
2017-09-29T05:38:13.817Z,16.20
2017-09-29T05:39:15.707Z,16.17
2017-09-29T05:40:17.600Z,16.15
2017-09-29T05:41:19.493Z,16.23
2017-09-29T05:42:21.318Z,16.21
2017-09-29T05:43:23.169Z,16.24
2017-09-29T05:44:25.049Z,16.38
2017-09-29T05:45:26.939Z,16.35
2017-09-29T05:46:28.829Z,16.34
2017-09-29T05:47:42.992Z,16.34
2017-09-29T05:48:44.881Z,16.31
2017-09-29T05:49:46.771Z,16.28
2017-09-29T05:50:48.663Z,16.35
2017-09-29T05:51:50.499Z,16.31
2017-09-29T05:52:52.325Z,16.39
2017-09-29T05:53:54.216Z,16.33
2017-09-29T05:54:56.108Z,16.45
2017-09-29T05:55:57.999Z,16.38
2017-09-29T05:57:12.162Z,16.34
2017-09-29T05:58:14.050Z,16.34
2017-09-29T05:59:15.952Z,16.45
2017-09-29T06:00:17.840Z,16.46
2017-09-29T06:01:19.667Z,16.49
2017-09-29T06:02:21.492Z,16.49
2017-09-29T06:03:23.385Z,16.50
2017-09-29T06:04:25.276Z,16.57
2017-09-29T06:05:27.165Z,16.53
2017-09-29T06:06:41.328Z,16.58
2017-09-29T06:07:43.221Z,16.57
2017-09-29T06:08:45.110Z,16.64
2017-09-29T06:09:47.002Z,16.61
2017-09-29T06:10:48.828Z,16.63
2017-09-29T06:11:50.654Z,16.63
2017-09-29T06:12:52.541Z,16.64
2017-09-29T06:13:54.445Z,16.71
2017-09-29T06:14:56.335Z,16.85
2017-09-29T06:16:10.498Z,16.83
2017-09-29T06:17:12.387Z,16.97
2017-09-29T06:18:14.280Z,17.01
2017-09-29T06:19:16.172Z,16.97
2017-09-29T06:20:18.005Z,17.08
2017-09-29T06:21:19.826Z,17.16
2017-09-29T06:22:21.722Z,17.21
2017-09-29T06:23:23.606Z,17.31
2017-09-29T06:24:25.508Z,17.31
2017-09-29T06:25:39.672Z,17.41
2017-09-29T06:26:41.562Z,17.37
2017-09-29T06:27:43.450Z,17.44
2017-09-29T06:28:45.340Z,17.49
2017-09-29T06:29:47.181Z,17.56
2017-09-29T06:30:49.006Z,17.62
2017-09-29T06:31:50.897Z,17.70
2017-09-29T06:32:52.787Z,17.70
2017-09-29T06:33:54.677Z,17.81
2017-09-29T06:35:08.840Z,17.96
2017-09-29T06:36:10.730Z,17.99
2017-09-29T06:37:12.626Z,18.07
2017-09-29T06:38:14.524Z,18.14
2017-09-29T06:39:16.343Z,18.11
2017-09-29T06:40:18.172Z,18.27
2017-09-29T06:41:20.066Z,18.32
2017-09-29T06:42:21.955Z,18.33
2017-09-29T06:43:23.848Z,18.37
2017-09-29T06:44:38.015Z,18.44
2017-09-29T06:45:39.908Z,18.42
2017-09-29T06:46:41.802Z,18.48
2017-09-29T06:47:43.696Z,18.48
2017-09-29T06:48:45.524Z,18.52
2017-09-29T06:49:47.353Z,18.65
2017-09-29T06:50:49.255Z,18.65
2017-09-29T06:51:51.140Z,18.72
2017-09-29T06:52:53.032Z,18.76
2017-09-29T06:54:07.198Z,18.66
2017-09-29T06:55:09.091Z,18.80
2017-09-29T06:56:10.987Z,18.81
2017-09-29T06:57:12.890Z,18.82
2017-09-29T06:58:14.720Z,18.87
2017-09-29T06:59:16.549Z,18.90
2017-09-29T07:00:18.441Z,18.91
2017-09-29T07:01:20.337Z,18.90
2017-09-29T07:02:22.232Z,18.82
2017-09-29T07:03:36.396Z,18.81
2017-09-29T07:04:38.289Z,18.90
2017-09-29T07:05:40.183Z,19.04
2017-09-29T07:06:42.078Z,19.07
2017-09-29T07:07:43.916Z,19.13
2017-09-29T07:08:45.746Z,19.08
2017-09-29T07:09:47.637Z,19.13
2017-09-29T07:10:49.530Z,19.21
2017-09-29T07:11:51.423Z,19.19
2017-09-29T07:13:05.587Z,19.25
2017-09-29T07:14:07.477Z,19.22
2017-09-29T07:15:09.369Z,19.28
2017-09-29T07:16:11.262Z,19.39
2017-09-29T07:17:13.118Z,19.47
2017-09-29T07:18:14.951Z,19.54
2017-09-29T07:19:16.843Z,19.54
2017-09-29T07:20:18.740Z,19.41
2017-09-29T07:21:20.632Z,19.46
2017-09-29T07:22:34.856Z,19.47
2017-09-29T07:23:36.750Z,19.54
2017-09-29T07:24:38.649Z,19.61
2017-09-29T07:25:40.537Z,19.62
2017-09-29T07:26:42.367Z,19.62
2017-09-29T07:27:44.196Z,19.63
2017-09-29T07:28:46.089Z,19.76
2017-09-29T07:29:47.999Z,19.74
2017-09-29T07:30:49.921Z,19.69
2017-09-29T07:32:04.088Z,19.92
2017-09-29T07:33:05.981Z,19.87
2017-09-29T07:34:07.877Z,19.88
2017-09-29T07:35:09.770Z,19.94
2017-09-29T07:36:11.601Z,19.86
2017-09-29T07:37:13.429Z,19.91
2017-09-29T07:38:15.370Z,19.88
2017-09-29T07:39:17.265Z,19.88
2017-09-29T07:40:19.164Z,19.91
2017-09-29T07:41:33.429Z,19.92
2017-09-29T07:42:35.321Z,19.80
2017-09-29T07:43:37.218Z,19.77
2017-09-29T07:44:39.525Z,19.80
2017-09-29T07:45:41.322Z,19.74
2017-09-29T07:46:43.150Z,19.80
2017-09-29T07:47:45.051Z,19.80
2017-09-29T07:48:46.937Z,19.68
2017-09-29T07:49:48.832Z,19.68
2017-09-29T07:51:03.003Z,19.63
2017-09-29T07:52:04.890Z,19.65
2017-09-29T07:53:06.782Z,19.55
2017-09-29T07:54:08.675Z,19.62
2017-09-29T07:55:10.509Z,19.65
2017-09-29T07:56:12.337Z,19.61
2017-09-29T07:57:14.233Z,19.59
2017-09-29T07:58:16.127Z,19.58
2017-09-29T07:59:18.019Z,19.58
2017-09-29T08:00:32.191Z,19.54
2017-09-29T08:01:34.083Z,19.54
2017-09-29T08:02:35.975Z,19.36
2017-09-29T08:03:37.870Z,19.40
2017-09-29T08:04:39.705Z,19.26
2017-09-29T08:05:41.539Z,19.16
2017-09-29T08:06:43.427Z,19.04
2017-09-29T08:07:45.324Z,19.04
2017-09-29T08:08:47.224Z,19.07
2017-09-29T08:10:01.384Z,19.10
2017-09-29T08:11:03.278Z,19.10
2017-09-29T08:12:05.173Z,19.07
2017-09-29T08:13:07.067Z,18.95
2017-09-29T08:14:09.658Z,18.94
2017-09-29T08:15:11.466Z,18.91
2017-09-29T08:16:13.348Z,18.80
2017-09-29T08:17:15.242Z,18.85
2017-09-29T08:18:17.167Z,18.80
2017-09-29T08:19:31.335Z,18.90
2017-09-29T08:20:33.528Z,18.84
2017-09-29T08:21:35.385Z,18.98
2017-09-29T08:22:37.278Z,19.07
2017-09-29T08:23:39.106Z,19.08
2017-09-29T08:24:40.935Z,19.04
2017-09-29T08:25:42.840Z,19.21
2017-09-29T08:26:44.740Z,19.25
2017-09-29T08:27:46.632Z,19.29
2017-09-29T08:29:00.796Z,19.25
2017-09-29T08:30:02.693Z,19.22
2017-09-29T08:31:04.582Z,19.21
2017-09-29T08:32:06.483Z,19.18
2017-09-29T08:33:08.304Z,19.19
2017-09-29T08:34:10.132Z,19.16
2017-09-29T08:35:12.026Z,19.16
2017-09-29T08:36:13.918Z,19.26
2017-09-29T08:37:15.811Z,19.32
2017-09-29T08:38:29.977Z,19.43
2017-09-29T08:39:31.867Z,19.58
2017-09-29T08:40:33.760Z,19.56
2017-09-29T08:41:35.665Z,19.73
2017-09-29T08:42:37.496Z,19.86
2017-09-29T08:43:39.337Z,20.02
2017-09-29T08:44:41.219Z,20.10
2017-09-29T08:45:43.114Z,20.18
2017-09-29T08:46:45.006Z,20.23
2017-09-29T08:47:59.172Z,20.38
2017-09-29T08:49:01.069Z,20.35
2017-09-29T08:50:02.962Z,20.32
2017-09-29T08:51:04.856Z,20.31
2017-09-29T08:52:06.685Z,20.31
2017-09-29T08:53:08.515Z,20.35
2017-09-29T08:54:10.408Z,20.39
2017-09-29T08:55:12.306Z,20.31
2017-09-29T08:56:14.201Z,20.39
2017-09-29T08:57:28.366Z,20.54
2017-09-29T08:58:30.258Z,20.59
2017-09-29T08:59:32.152Z,20.55
2017-09-29T09:00:34.047Z,20.66
2017-09-29T09:01:35.876Z,20.70
2017-09-29T09:02:37.706Z,20.85
2017-09-29T09:03:39.605Z,20.84
2017-09-29T09:04:41.498Z,20.72
2017-09-29T09:05:43.393Z,20.70
2017-09-29T09:06:57.560Z,20.73
2017-09-29T09:07:59.453Z,20.66
2017-09-29T09:09:01.346Z,20.62
2017-09-29T09:10:03.246Z,20.57
2017-09-29T09:11:05.077Z,20.66
2017-09-29T09:12:06.909Z,20.61
2017-09-29T09:13:08.803Z,20.62
2017-09-29T09:14:10.726Z,20.61
2017-09-29T09:15:12.628Z,20.72
2017-09-29T09:16:26.844Z,20.85
2017-09-29T09:17:28.738Z,20.91
2017-09-29T09:18:30.633Z,20.87
2017-09-29T09:19:32.527Z,21.03
2017-09-29T09:20:34.355Z,21.04
2017-09-29T09:21:36.185Z,21.17
2017-09-29T09:22:38.082Z,21.12
2017-09-29T09:23:39.971Z,21.17
2017-09-29T09:24:41.867Z,21.10
2017-09-29T09:25:56.041Z,21.16
2017-09-29T09:26:57.925Z,21.13
2017-09-29T09:27:59.823Z,21.13
2017-09-29T09:29:01.735Z,21.16
2017-09-29T09:30:03.576Z,21.19
2017-09-29T09:31:05.406Z,21.27
2017-09-29T09:32:07.298Z,21.28
2017-09-29T09:33:09.206Z,21.25
2017-09-29T09:34:11.095Z,21.38
2017-09-29T09:35:25.261Z,21.38
2017-09-29T09:36:27.156Z,21.37
2017-09-29T09:37:29.052Z,21.37
2017-09-29T09:38:30.948Z,21.42
2017-09-29T09:39:32.777Z,21.40
2017-09-29T09:40:34.610Z,21.50
2017-09-29T09:41:36.503Z,21.53
2017-09-29T09:42:38.415Z,21.50
2017-09-29T09:43:40.310Z,21.52
2017-09-29T09:44:54.478Z,21.65
2017-09-29T09:45:56.417Z,21.68
2017-09-29T09:46:58.313Z,21.72
2017-09-29T09:48:00.213Z,21.68
2017-09-29T09:49:02.037Z,21.67
2017-09-29T09:50:03.865Z,21.67
2017-09-29T09:51:05.759Z,21.68
2017-09-29T09:52:07.653Z,21.59
2017-09-29T09:53:09.545Z,21.74
2017-09-29T09:54:23.711Z,21.72
2017-09-29T09:55:25.603Z,21.74
2017-09-29T09:56:27.496Z,21.77
2017-09-29T09:57:29.391Z,21.77
2017-09-29T09:58:31.221Z,21.79
2017-09-29T09:59:33.051Z,21.79
2017-09-29T10:00:34.953Z,21.77
2017-09-29T10:01:36.841Z,21.77
2017-09-29T10:02:38.733Z,21.79
2017-09-29T10:03:52.900Z,21.74
2017-09-29T10:04:54.792Z,21.68
2017-09-29T10:05:56.687Z,21.61
2017-09-29T10:06:58.582Z,21.72
2017-09-29T10:08:00.414Z,21.77
2017-09-29T10:09:02.244Z,21.79
2017-09-29T10:10:04.137Z,21.80
2017-09-29T10:11:06.031Z,21.65
2017-09-29T10:12:07.925Z,21.61
2017-09-29T10:13:22.096Z,21.58
2017-09-29T10:14:23.985Z,21.58
2017-09-29T10:15:25.996Z,21.65
2017-09-29T10:16:28.499Z,21.61
2017-09-29T10:17:30.335Z,21.65
2017-09-29T10:18:32.166Z,21.62
2017-09-29T10:19:34.061Z,21.56
2017-09-29T10:20:35.954Z,21.52
2017-09-29T10:21:37.865Z,21.56
2017-09-29T10:22:52.027Z,21.53
2017-09-29T10:23:53.919Z,21.47
2017-09-29T10:24:55.813Z,21.49
2017-09-29T10:25:57.713Z,21.43
2017-09-29T10:26:59.537Z,21.47
2017-09-29T10:28:01.368Z,21.38
2017-09-29T10:29:03.260Z,21.42
2017-09-29T10:30:05.154Z,21.40
2017-09-29T10:31:07.008Z,21.35
2017-09-29T10:32:21.171Z,21.35
2017-09-29T10:33:23.091Z,21.38
2017-09-29T10:34:24.985Z,21.38
2017-09-29T10:35:26.877Z,21.49
2017-09-29T10:36:28.711Z,21.50
2017-09-29T10:37:30.559Z,21.53
2017-09-29T10:38:32.461Z,21.52
2017-09-29T10:39:34.355Z,21.49
2017-09-29T10:40:36.260Z,21.50
2017-09-29T10:41:50.431Z,21.46
2017-09-29T10:42:52.319Z,21.49
2017-09-29T10:43:54.212Z,21.58
2017-09-29T10:44:56.256Z,21.61
2017-09-29T10:45:58.090Z,21.58
2017-09-29T10:46:59.916Z,21.56
2017-09-29T10:48:01.809Z,21.50
2017-09-29T10:49:03.706Z,21.52
2017-09-29T10:50:05.600Z,21.58
2017-09-29T10:51:19.768Z,21.58
2017-09-29T10:52:21.659Z,21.52
2017-09-29T10:53:23.583Z,21.50
2017-09-29T10:54:25.451Z,21.35
2017-09-29T10:55:27.280Z,21.38
2017-09-29T10:56:29.109Z,21.32
2017-09-29T10:57:31.001Z,21.32
2017-09-29T10:58:32.894Z,21.25
2017-09-29T10:59:34.790Z,21.25
2017-09-29T11:00:49.064Z,21.28
2017-09-29T11:01:50.958Z,21.27
2017-09-29T11:02:52.851Z,21.28
2017-09-29T11:03:54.748Z,21.25
2017-09-29T11:04:56.580Z,21.31
2017-09-29T11:05:58.410Z,21.34
2017-09-29T11:07:00.306Z,21.34
2017-09-29T11:08:02.198Z,21.25
2017-09-29T11:09:04.095Z,21.34
2017-09-29T11:10:18.262Z,21.37
2017-09-29T11:11:20.154Z,21.42
2017-09-29T11:12:22.054Z,21.43
2017-09-29T11:13:23.943Z,21.43
2017-09-29T11:14:25.773Z,21.44
2017-09-29T11:15:27.601Z,21.49
2017-09-29T11:16:29.505Z,21.49
2017-09-29T11:17:31.399Z,21.56
2017-09-29T11:18:33.292Z,21.52
2017-09-29T11:19:47.459Z,21.50
2017-09-29T11:20:49.352Z,21.46
2017-09-29T11:21:51.347Z,21.47
2017-09-29T11:22:53.238Z,21.47
2017-09-29T11:23:55.071Z,21.49
2017-09-29T11:24:56.927Z,21.47
2017-09-29T11:25:58.901Z,21.46
2017-09-29T11:27:00.803Z,21.47
2017-09-29T11:28:02.695Z,21.47
2017-09-29T11:29:16.862Z,21.52
2017-09-29T11:30:18.754Z,21.54
2017-09-29T11:31:20.675Z,21.47
2017-09-29T11:32:22.597Z,21.52
2017-09-29T11:33:24.460Z,21.53
2017-09-29T11:34:26.297Z,21.53
2017-09-29T11:35:28.184Z,21.47
2017-09-29T11:36:30.077Z,21.56
2017-09-29T11:37:31.975Z,21.49
2017-09-29T11:38:46.228Z,21.53
2017-09-29T11:39:48.530Z,21.54
2017-09-29T11:40:50.624Z,21.52
2017-09-29T11:41:52.517Z,21.50
2017-09-29T11:42:54.407Z,21.64
2017-09-29T11:43:56.362Z,21.62
2017-09-29T11:44:58.294Z,21.65
2017-09-29T11:46:00.199Z,21.62
2017-09-29T11:47:02.095Z,21.56
2017-09-29T11:48:16.262Z,21.64
2017-09-29T11:49:18.154Z,21.62
2017-09-29T11:50:20.046Z,21.56
2017-09-29T11:51:21.941Z,21.61
2017-09-29T11:52:23.894Z,21.61
2017-09-29T11:53:25.759Z,21.59
2017-09-29T11:54:27.651Z,21.64
2017-09-29T11:55:29.600Z,21.68
2017-09-29T11:56:31.523Z,21.68
2017-09-29T11:57:45.750Z,21.72
2017-09-29T11:58:47.644Z,21.77
2017-09-29T11:59:49.537Z,21.77
2017-09-29T12:00:51.454Z,21.77
2017-09-29T12:01:53.284Z,21.79
2017-09-29T12:02:55.115Z,21.83
2017-09-29T12:03:57.004Z,21.75
2017-09-29T12:04:58.899Z,21.83
2017-09-29T12:06:00.796Z,21.77
2017-09-29T12:07:14.987Z,21.75
2017-09-29T12:08:16.918Z,21.74
2017-09-29T12:09:18.811Z,21.82
2017-09-29T12:10:20.717Z,21.74
2017-09-29T12:11:22.566Z,21.75
2017-09-29T12:12:24.380Z,21.80
2017-09-29T12:13:26.275Z,21.94
2017-09-29T12:14:28.167Z,21.94
2017-09-29T12:15:30.065Z,21.94
2017-09-29T12:16:44.262Z,21.91
2017-09-29T12:17:46.151Z,21.86
2017-09-29T12:18:48.083Z,21.84
2017-09-29T12:19:49.948Z,21.91
2017-09-29T12:20:51.778Z,21.90
2017-09-29T12:21:53.605Z,21.91
2017-09-29T12:22:55.498Z,21.90
2017-09-29T12:23:57.390Z,21.94
2017-09-29T12:24:59.294Z,21.87
2017-09-29T12:26:13.460Z,21.91
2017-09-29T12:27:15.362Z,21.96
2017-09-29T12:28:17.319Z,21.99
2017-09-29T12:29:19.193Z,21.98
2017-09-29T12:30:21.023Z,22.06
2017-09-29T12:31:22.864Z,21.99
2017-09-29T12:32:24.755Z,22.05
2017-09-29T12:33:26.669Z,22.10
2017-09-29T12:34:29.034Z,22.20
2017-09-29T12:35:43.345Z,22.14
2017-09-29T12:36:45.238Z,22.17
2017-09-29T12:37:47.131Z,22.07
2017-09-29T12:38:49.028Z,22.06
2017-09-29T12:39:50.857Z,22.15
2017-09-29T12:40:52.686Z,22.20
2017-09-29T12:41:54.581Z,22.28
2017-09-29T12:42:56.552Z,22.22
2017-09-29T12:43:58.493Z,22.28
2017-09-29T12:45:25.063Z,22.27
2017-09-29T12:46:26.953Z,22.45
2017-09-29T12:47:28.927Z,22.36
2017-09-29T12:48:31.249Z,22.37
2017-09-29T12:49:33.257Z,22.36
2017-09-29T12:50:35.087Z,22.39
2017-09-29T12:51:37.002Z,22.42
2017-09-29T12:52:38.875Z,22.31
2017-09-29T12:53:40.859Z,22.30
2017-09-29T12:54:55.088Z,22.37
2017-09-29T12:55:56.999Z,22.30
2017-09-29T12:56:58.890Z,22.31
2017-09-29T12:58:00.787Z,22.35
2017-09-29T12:59:02.613Z,22.27
2017-09-29T13:00:04.454Z,22.33
2017-09-29T13:01:06.706Z,22.37
2017-09-29T13:02:08.598Z,22.35
2017-09-29T13:03:10.503Z,22.28
2017-09-29T13:04:24.741Z,22.28
2017-09-29T13:05:26.725Z,22.31
2017-09-29T13:06:28.584Z,22.30
2017-09-29T13:07:30.513Z,22.30
2017-09-29T13:08:32.353Z,22.30
2017-09-29T13:09:34.536Z,22.33
2017-09-29T13:10:36.455Z,22.31
2017-09-29T13:11:38.528Z,22.35
2017-09-29T13:12:40.496Z,22.35
2017-09-29T13:13:55.020Z,22.33
2017-09-29T13:14:56.875Z,22.27
2017-09-29T13:15:58.773Z,22.28
2017-09-29T13:17:00.681Z,22.25
2017-09-29T13:18:02.881Z,22.24
2017-09-29T13:19:04.807Z,22.18
2017-09-29T13:20:06.717Z,22.24
2017-09-29T13:21:08.668Z,22.25
2017-09-29T13:22:10.652Z,22.37
2017-09-29T13:23:24.822Z,22.36
2017-09-29T13:24:26.712Z,22.39
2017-09-29T13:25:28.606Z,22.31
2017-09-29T13:26:30.501Z,22.24
2017-09-29T13:27:32.335Z,22.25
2017-09-29T13:28:34.490Z,22.21
2017-09-29T13:29:36.486Z,22.27
2017-09-29T13:30:38.400Z,22.20
2017-09-29T13:31:40.329Z,22.17
2017-09-29T13:32:54.522Z,22.18
2017-09-29T13:33:56.478Z,22.10
2017-09-29T13:34:58.385Z,22.21